Time;durP1;ratioP1;P1;durP2;ratioP2;P2;SDS_P1;SDS_P2;PMS_P1;PMS_P2;Temp;Humidity;BMP_temperature;BMP_pressure;BME280_temperature;BME280_humidity;BME280_pressure;Samples;Min_cycle;Max_cycle;Signal;HPM_P1;HPM_P2
2022/09/09 00:01:28;;;;;;;2.83;1.80;;;15.10;99.90;;;;;;4891008;29;20035;-76
2022/09/09 00:04:05;;;;;;;3.92;2.45;;;15.10;99.90;;;;;;4914223;29;20455;-76
2022/09/09 00:06:37;;;;;;;4.50;2.60;;;15.20;99.90;;;;;;4899914;29;20083;-77
2022/09/09 00:09:12;;;;;;;6.75;2.42;;;15.20;99.90;;;;;;4909530;29;20033;-77
2022/09/09 00:11:53;;;;;;;7.90;2.87;;;15.20;99.90;;;;;;4909265;29;20024;-76
2022/09/09 00:14:30;;;;;;;5.85;2.80;;;15.20;99.90;;;;;;4915198;29;20027;-75
2022/09/09 00:17:04;;;;;;;3.45;2.58;;;15.30;99.90;;;;;;4911001;29;20020;-76
2022/09/09 00:19:36;;;;;;;2.63;1.95;;;15.30;99.90;;;;;;4914179;29;20487;-76
2022/09/09 00:22:19;;;;;;;4.68;1.77;;;15.30;99.90;;;;;;4904862;29;20036;-76
2022/09/09 00:24:53;;;;;;;2.80;1.58;;;15.30;99.90;;;;;;4906908;29;20024;-75
2022/09/09 00:27:37;;;;;;;3.00;2.05;;;15.30;99.90;;;;;;4912364;29;20083;-76
2022/09/09 00:30:31;;;;;;;7.15;1.83;;;15.30;99.90;;;;;;4909908;29;20038;-75
2022/09/09 00:33:11;;;;;;;4.75;1.70;;;15.40;99.90;;;;;;4911088;29;20051;-76
2022/09/09 00:35:59;;;;;;;5.28;1.52;;;15.40;99.90;;;;;;4911719;29;20038;-75
2022/09/09 00:38:34;;;;;;;8.13;1.38;;;15.50;99.90;;;;;;4900534;29;20031;-75
2022/09/09 00:41:10;;;;;;;3.23;1.67;;;15.60;99.90;;;;;;4903180;29;20172;-75
2022/09/09 00:43:40;;;;;;;4.78;2.50;;;15.70;99.90;;;;;;4917412;29;20032;-79
2022/09/09 00:46:34;;;;;;;3.85;1.98;;;15.70;99.90;;;;;;4911366;29;20095;-79
2022/09/09 00:49:23;;;;;;;5.68;1.80;;;15.80;99.90;;;;;;4913724;29;20373;-76
2022/09/09 00:52:07;;;;;;;2.97;1.55;;;15.90;99.90;;;;;;4906509;29;20032;-78
2022/09/09 00:54:48;;;;;;;2.22;2.03;;;16.10;99.90;;;;;;4910712;29;20028;-76
2022/09/09 00:57:32;;;;;;;2.20;1.17;;;16.50;99.90;;;;;;4913366;29;20036;-80
2022/09/09 01:00:19;;;;;;;2.72;1.75;;;16.80;99.90;;;;;;4912575;29;20130;-80
2022/09/09 01:02:47;;;;;;;2.65;0.90;;;17.20;99.90;;;;;;4913862;29;20048;-78
2022/09/09 01:05:39;;;;;;;1.55;0.90;;;17.40;99.90;;;;;;4907404;29;20041;-79
2022/09/09 01:08:30;;;;;;;1.83;1.00;;;17.50;99.90;;;;;;4909248;29;20051;-79
2022/09/09 01:10:59;;;;;;;2.95;1.25;;;17.60;99.90;;;;;;4910502;29;20036;-78
2022/09/09 01:13:33;;;;;;;3.55;1.33;;;17.70;99.90;;;;;;4912195;29;20502;-78
2022/09/09 01:16:04;;;;;;;1.95;1.20;;;17.80;99.90;;;;;;4907330;29;20040;-80
2022/09/09 01:18:38;;;;;;;1.45;0.90;;;17.90;99.90;;;;;;4907804;29;20468;-79
2022/09/09 01:21:17;;;;;;;1.40;0.50;;;17.80;99.90;;;;;;4901440;29;20040;-78
2022/09/09 01:23:57;;;;;;;1.00;0.50;;;17.70;99.90;;;;;;4897798;29;20058;-78
2022/09/09 01:26:27;;;;;;;0.93;0.63;;;17.60;99.90;;;;;;4899985;29;20085;-76
2022/09/09 01:28:55;;;;;;;1.33;0.50;;;17.60;99.90;;;;;;4903663;29;20051;-78
2022/09/09 01:31:35;;;;;;;1.65;0.77;;;17.60;99.90;;;;;;4909235;29;20379;-78
2022/09/09 01:34:09;;;;;;;0.60;0.50;;;17.80;99.90;;;;;;4921720;29;20028;-79
2022/09/09 01:37:00;;;;;;;1.02;0.40;;;18.10;99.90;;;;;;4901396;29;20043;-76
2022/09/09 01:39:28;;;;;;;2.35;1.05;;;18.40;99.90;;;;;;4908520;29;20055;-78
2022/09/09 01:41:57;;;;;;;0.73;0.40;;;18.70;99.90;;;;;;4912114;29;20043;-75
2022/09/09 01:44:27;;;;;;;0.40;0.30;;;19.20;99.90;;;;;;4910627;29;20074;-78
2022/09/09 01:46:54;;;;;;;0.70;0.35;;;19.40;99.90;;;;;;4912997;29;20043;-76
2022/09/09 01:49:21;;;;;;;1.08;0.65;;;19.50;99.90;;;;;;4914930;29;20039;-77
2022/09/09 01:52:25;;;;;;;0.82;0.40;;;19.50;99.90;;;;;;4915611;29;20024;-77
2022/09/09 01:55:32;;;;;;;1.95;0.30;;;19.70;99.90;;;;;;4914427;29;20033;-79
2022/09/09 01:58:26;;;;;;;0.88;0.40;;;19.90;99.90;;;;;;4914744;29;20273;-79
2022/09/09 02:01:06;;;;;;;1.55;0.20;;;20.40;99.90;;;;;;4909751;29;20025;-77
2022/09/09 02:03:35;;;;;;;1.08;0.60;;;20.70;99.90;;;;;;4916805;29;20040;-77
2022/09/09 02:06:15;;;;;;;0.80;0.30;;;20.70;99.90;;;;;;4908132;29;20035;-76
2022/09/09 02:08:50;;;;;;;0.40;0.35;;;20.50;99.90;;;;;;4913964;29;20032;-78
2022/09/09 02:11:20;;;;;;;1.73;0.40;;;20.30;99.90;;;;;;4911660;29;20440;-79
2022/09/09 02:13:51;;;;;;;0.60;0.30;;;20.10;99.90;;;;;;4916699;29;20043;-76
2022/09/09 02:16:41;;;;;;;1.30;0.47;;;20.20;99.90;;;;;;4911667;29;20035;-78
2022/09/09 02:19:21;;;;;;;1.13;0.43;;;20.30;99.90;;;;;;4914487;29;20028;-78
2022/09/09 02:21:49;;;;;;;1.38;0.60;;;20.20;99.90;;;;;;4914352;29;20036;-79
2022/09/09 02:24:17;;;;;;;1.15;0.60;;;20.10;99.90;;;;;;4915929;29;20484;-78
2022/09/09 02:26:48;;;;;;;1.10;0.52;;;20.10;99.90;;;;;;4913675;29;20119;-77
2022/09/09 02:29:44;;;;;;;1.48;0.40;;;20.20;99.90;;;;;;4912838;29;20095;-72
2022/09/09 02:32:24;;;;;;;1.55;0.65;;;20.50;99.90;;;;;;4913574;29;20028;-73
2022/09/09 02:35:02;;;;;;;0.77;0.32;;;20.80;99.90;;;;;;4905281;29;20116;-74
2022/09/09 02:37:36;;;;;;;0.50;0.30;;;21.10;99.90;;;;;;4885337;29;20028;-76
2022/09/09 02:40:05;;;;;;;0.93;0.43;;;21.40;99.90;;;;;;4912308;29;20475;-78
2022/09/09 02:42:39;;;;;;;0.77;0.40;;;21.60;99.90;;;;;;4924909;29;20456;-75
2022/09/09 02:45:09;;;;;;;0.82;0.28;;;21.80;99.90;;;;;;4912452;29;20436;-76
2022/09/09 02:48:10;;;;;;;0.50;0.30;;;21.50;99.90;;;;;;4914794;29;20108;-79
2022/09/09 02:51:06;;;;;;;0.70;0.30;;;21.70;99.90;;;;;;4911307;29;20024;-79
2022/09/09 02:53:45;;;;;;;0.70;0.50;;;21.90;99.90;;;;;;4914493;29;20484;-78
2022/09/09 02:56:25;;;;;;;0.30;0.30;;;21.90;99.90;;;;;;4914225;29;20043;-80
2022/09/09 02:58:54;;;;;;;1.05;0.30;;;21.80;99.90;;;;;;4915018;29;20054;-76
2022/09/09 03:01:22;;;;;;;0.30;0.22;;;21.80;99.90;;;;;;4911868;29;20036;-81
2022/09/09 03:03:49;;;;;;;0.30;0.20;;;22.00;99.90;;;;;;4913961;29;20058;-79
2022/09/09 03:06:17;;;;;;;1.25;0.20;;;21.90;99.90;;;;;;4912681;29;20496;-79
2022/09/09 03:08:44;;;;;;;0.70;0.55;;;21.60;99.90;;;;;;4915596;29;20443;-78
2022/09/09 03:11:13;;;;;;;0.65;0.40;;;21.50;99.90;;;;;;4909754;29;20043;-75
2022/09/09 03:13:41;;;;;;;0.60;0.50;;;21.30;99.90;;;;;;4907758;29;20180;-79
2022/09/09 03:16:08;;;;;;;0.45;0.30;;;21.10;99.90;;;;;;4903018;29;20044;-80
2022/09/09 03:18:36;;;;;;;0.68;0.30;;;21.00;99.90;;;;;;4901446;29;20032;-77
2022/09/09 03:21:03;;;;;;;0.65;0.30;;;20.80;99.90;;;;;;4903906;29;20028;-76
2022/09/09 03:23:31;;;;;;;1.25;0.30;;;20.80;99.90;;;;;;4902496;29;20044;-75
2022/09/09 03:25:58;;;;;;;1.77;0.50;;;20.80;99.90;;;;;;4903756;29;20035;-78
2022/09/09 03:28:30;;;;;;;1.75;0.73;;;21.00;99.90;;;;;;4910211;29;20054;-79
2022/09/09 03:31:06;;;;;;;0.38;0.20;;;21.60;99.90;;;;;;4912621;29;20027;-79
2022/09/09 03:33:34;;;;;;;0.77;0.20;;;22.10;99.90;;;;;;4914822;29;20480;-78
2022/09/09 03:36:01;;;;;;;0.32;0.20;;;22.30;99.90;;;;;;4912088;29;20083;-76
2022/09/09 03:38:29;;;;;;;0.95;0.40;;;22.40;99.90;;;;;;4906145;29;20039;-78
2022/09/09 03:40:58;;;;;;;0.10;0.10;;;22.20;99.90;;;;;;4902144;29;20515;-77
2022/09/09 03:43:27;;;;;;;0.50;0.17;;;22.10;99.80;;;;;;4903239;29;20052;-73
2022/09/09 03:45:57;;;;;;;0.30;0.30;;;22.20;99.30;;;;;;4903814;29;20446;-76
2022/09/09 03:48:27;;;;;;;0.17;0.17;;;22.30;98.70;;;;;;4903327;29;20119;-74
2022/09/09 03:50:57;;;;;;;1.08;0.20;;;22.40;98.90;;;;;;4901425;29;20035;-77
2022/09/09 03:53:25;;;;;;;0.20;0.20;;;23.10;98.80;;;;;;4911570;29;20031;-79
2022/09/09 03:55:55;;;;;;;1.75;0.68;;;23.60;96.80;;;;;;4912158;29;20340;-79
2022/09/09 03:58:24;;;;;;;0.10;0.10;;;24.00;97.00;;;;;;4913365;29;20024;-84
2022/09/09 04:00:58;;;;;;;0.40;0.20;;;24.10;96.30;;;;;;4910286;29;20071;-72
2022/09/09 04:03:26;;;;;;;0.68;0.20;;;24.00;95.90;;;;;;4904984;29;20146;-75
2022/09/09 04:05:55;;;;;;;0.60;0.20;;;24.00;95.80;;;;;;4902420;29;20028;-84
2022/09/09 04:08:25;;;;;;;0.55;0.13;;;24.10;94.90;;;;;;4905812;29;20037;-79
2022/09/09 04:10:54;;;;;;;0.50;0.17;;;23.90;94.80;;;;;;4902274;29;22661;-76
2022/09/09 04:13:22;;;;;;;1.08;0.10;;;24.00;95.80;;;;;;4901812;29;20488;-83
2022/09/09 04:16:00;;;;;;;0.45;0.15;;;24.10;95.00;;;;;;4903595;29;20036;-79
2022/09/09 04:18:28;;;;;;;3.83;0.25;;;24.20;95.00;;;;;;4903652;29;20110;-80
2022/09/09 04:20:58;;;;;;;0.15;0.10;;;24.20;95.40;;;;;;4902878;29;20507;-80
2022/09/09 04:23:29;;;;;;;2.28;0.20;;;24.10;95.40;;;;;;4902085;29;20429;-79
2022/09/09 04:25:58;;;;;;;2.05;0.50;;;24.10;95.10;;;;;;4904237;29;20645;-77
2022/09/09 04:28:28;;;;;;;0.20;0.13;;;24.20;95.30;;;;;;4907543;29;20115;-77
2022/09/09 04:30:59;;;;;;;0.52;0.52;;;24.20;94.20;;;;;;4902707;29;20017;-74
2022/09/09 04:33:27;;;;;;;0.20;0.10;;;23.80;94.90;;;;;;4905958;29;20482;-82
2022/09/09 04:35:54;;;;;;;0.20;0.10;;;23.10;95.60;;;;;;4896513;29;20467;-83
2022/09/09 04:38:25;;;;;;;0.32;0.20;;;22.40;96.00;;;;;;4913925;29;20039;-76
2022/09/09 04:40:53;;;;;;;0.10;0.10;;;21.90;96.70;;;;;;4909849;29;20040;-76
2022/09/09 04:43:22;;;;;;;0.28;0.17;;;21.50;97.00;;;;;;4912350;29;20184;-75
2022/09/09 04:45:54;;;;;;;0.38;0.10;;;21.40;97.90;;;;;;4911996;29;20092;-85
2022/09/09 04:48:22;;;;;;;0.32;0.17;;;21.30;98.80;;;;;;4910195;29;20032;-76
2022/09/09 04:51:18;;;;;;;0.85;0.40;;;21.10;99.00;;;;;;4912969;29;20051;-77
2022/09/09 04:53:48;;;;;;;0.35;0.10;;;20.80;99.90;;;;;;4891699;29;20059;-83
2022/09/09 04:56:17;;;;;;;0.50;0.20;;;20.70;99.90;;;;;;4912190;29;20036;-81
2022/09/09 04:58:45;;;;;;;1.30;0.40;;;20.70;99.90;;;;;;4912587;29;20371;-81
2022/09/09 05:01:17;;;;;;;3.13;0.30;;;20.70;99.90;;;;;;4910040;29;20500;-83
2022/09/09 05:03:47;;;;;;;2.17;0.50;;;20.50;99.90;;;;;;4910841;29;20055;-81
2022/09/09 05:06:18;;;;;;;0.40;0.20;;;20.20;99.90;;;;;;4910456;29;20029;-74
2022/09/09 05:08:46;;;;;;;0.22;0.22;;;20.00;99.90;;;;;;4910424;29;20036;-79
2022/09/09 05:11:25;;;;;;;1.13;0.20;;;19.70;99.90;;;;;;4897679;29;20055;-79
2022/09/09 05:13:53;;;;;;;2.80;0.60;;;19.50;99.90;;;;;;4908084;29;20035;-78
2022/09/09 05:16:22;;;;;;;1.75;0.20;;;19.30;99.90;;;;;;4911565;29;20436;-85
2022/09/09 05:18:51;;;;;;;6.75;0.70;;;19.00;99.90;;;;;;4914290;29;20064;-80
2022/09/09 05:21:20;;;;;;;2.08;0.60;;;18.60;99.90;;;;;;4907499;29;20028;-77
2022/09/09 05:23:48;;;;;;;0.95;0.25;;;18.10;99.90;;;;;;4901175;29;20036;-80
2022/09/09 05:26:17;;;;;;;0.85;0.60;;;17.70;99.90;;;;;;4911404;29;20032;-83
2022/09/09 05:28:46;;;;;;;2.83;0.30;;;17.70;99.90;;;;;;4890604;29;20044;-79
2022/09/09 05:31:15;;;;;;;0.57;0.30;;;17.70;99.90;;;;;;4905199;29;20438;-83
2022/09/09 05:33:45;;;;;;;1.17;0.25;;;17.80;99.90;;;;;;4911478;29;20123;-77
2022/09/09 05:36:20;;;;;;;0.82;0.13;;;17.90;99.90;;;;;;4908700;29;20365;-87
2022/09/09 05:38:49;;;;;;;0.10;0.10;;;18.10;99.90;;;;;;4909448;29;20035;-77
2022/09/09 05:41:17;;;;;;;0.25;0.10;;;18.20;99.90;;;;;;4909194;29;20037;-79
2022/09/09 05:43:46;;;;;;;1.52;0.20;;;18.40;99.90;;;;;;4911322;29;20502;-78
2022/09/09 05:46:22;;;;;;;0.85;0.20;;;18.80;99.90;;;;;;4889880;29;20035;-77
2022/09/09 05:48:51;;;;;;;1.33;0.20;;;18.90;99.90;;;;;;4913721;29;20539;-81
2022/09/09 05:51:24;;;;;;;0.82;0.50;;;18.90;99.90;;;;;;4909736;29;20559;-84
2022/09/09 05:53:51;;;;;;;1.65;0.80;;;18.70;99.90;;;;;;4912390;29;20036;-82
2022/09/09 05:56:30;;;;;;;0.73;0.25;;;18.60;99.90;;;;;;4900903;29;20490;-82
2022/09/09 05:58:59;;;;;;;0.20;0.10;;;18.60;99.90;;;;;;4903999;29;20510;-82
2022/09/09 06:01:30;;;;;;;0.30;0.15;;;18.70;99.90;;;;;;4903298;29;20037;-80
2022/09/09 06:03:57;;;;;;;0.63;0.25;;;19.10;99.90;;;;;;4903561;29;20044;-82
2022/09/09 06:06:27;;;;;;;2.25;0.32;;;19.40;99.90;;;;;;4901446;29;20120;-79
2022/09/09 06:08:57;;;;;;;0.40;0.20;;;19.70;99.90;;;;;;4902750;29;21069;-78
2022/09/09 06:11:30;;;;;;;0.68;0.20;;;19.90;99.90;;;;;;4901011;29;20036;-81
2022/09/09 06:13:59;;;;;;;1.20;0.30;;;20.00;99.90;;;;;;4905211;29;20032;-83
2022/09/09 06:16:28;;;;;;;0.93;0.35;;;20.10;99.90;;;;;;4900911;29;20043;-82
2022/09/09 06:18:57;;;;;;;0.25;0.20;;;20.10;99.90;;;;;;4898082;29;20428;-81
2022/09/09 06:21:27;;;;;;;0.30;0.30;;;20.20;99.90;;;;;;4911786;29;20180;-83
2022/09/09 06:23:55;;;;;;;0.25;0.25;;;19.90;99.90;;;;;;4905921;29;20126;-83
2022/09/09 06:26:25;;;;;;;1.05;0.30;;;19.60;99.90;;;;;;4898692;29;20371;-81
2022/09/09 06:28:54;;;;;;;2.00;0.47;;;19.30;99.90;;;;;;4903917;29;20514;-74
2022/09/09 06:31:24;;;;;;;0.80;0.30;;;19.10;99.90;;;;;;4904506;29;20032;-84
2022/09/09 06:33:54;;;;;;;0.28;0.28;;;18.90;99.90;;;;;;4907543;29;20044;-83
2022/09/09 06:36:25;;;;;;;0.47;0.35;;;18.70;99.90;;;;;;4906473;29;20150;-86
2022/09/09 06:38:52;;;;;;;0.93;0.30;;;18.60;99.90;;;;;;4905962;29;20100;-74
2022/09/09 06:41:22;;;;;;;0.25;0.25;;;18.50;99.90;;;;;;4910716;29;20495;-83
2022/09/09 06:43:50;;;;;;;0.65;0.43;;;18.40;99.90;;;;;;4908381;29;20135;-79
2022/09/09 06:46:20;;;;;;;0.30;0.25;;;18.30;99.90;;;;;;4908144;29;20276;-80
2022/09/09 06:48:47;;;;;;;0.43;0.40;;;18.20;99.90;;;;;;4907684;29;20040;-84
2022/09/09 06:51:24;;;;;;;1.20;0.30;;;18.20;99.90;;;;;;4905604;29;20075;-75
2022/09/09 06:53:53;;;;;;;1.25;0.50;;;18.40;99.90;;;;;;4908679;29;20071;-77
2022/09/09 06:56:31;;;;;;;1.13;0.82;;;18.50;99.90;;;;;;4907113;29;20059;-80
2022/09/09 06:59:03;;;;;;;0.32;0.20;;;18.70;99.90;;;;;;4904646;29;20040;-84
2022/09/09 07:01:33;;;;;;;0.30;0.20;;;18.80;99.90;;;;;;4906234;29;20119;-85
2022/09/09 07:04:02;;;;;;;0.30;0.30;;;18.70;99.90;;;;;;4904839;29;20044;-83
2022/09/09 07:06:34;;;;;;;0.10;0.10;;;18.60;99.90;;;;;;4905927;29;20092;-80
2022/09/09 07:09:10;;;;;;;0.32;0.20;;;18.50;99.90;;;;;;4906700;29;20056;-79
2022/09/09 07:11:46;;;;;;;0.30;0.10;;;18.40;99.90;;;;;;4904149;29;20111;-82
2022/09/09 07:14:14;;;;;;;0.15;0.10;;;18.30;99.90;;;;;;4911352;29;20020;-79
2022/09/09 07:16:43;;;;;;;0.45;0.17;;;18.10;99.90;;;;;;4904696;29;20087;-73
2022/09/09 07:19:12;;;;;;;0.95;0.40;;;17.90;99.90;;;;;;4907925;29;20115;-74
2022/09/09 07:21:42;;;;;;;0.85;0.30;;;17.80;99.90;;;;;;4910960;29;20036;-80
2022/09/09 07:24:10;;;;;;;1.30;0.38;;;17.70;99.90;;;;;;4917909;29;20478;-87
2022/09/09 07:26:39;;;;;;;0.75;0.50;;;17.60;99.90;;;;;;4901966;29;20076;-78
2022/09/09 07:29:07;;;;;;;1.08;0.38;;;17.40;99.90;;;;;;4917366;29;20036;-84
2022/09/09 07:31:37;;;;;;;0.90;0.60;;;17.30;99.90;;;;;;4918583;29;20047;-77
2022/09/09 07:34:05;;;;;;;1.15;0.50;;;17.20;99.90;;;;;;4913471;29;20032;-76
2022/09/09 07:36:35;;;;;;;2.13;0.50;;;17.10;99.90;;;;;;4915447;29;20024;-80
2022/09/09 07:39:08;;;;;;;2.40;1.30;;;17.00;99.90;;;;;;4916834;29;20036;-81
2022/09/09 07:41:41;;;;;;;3.78;1.88;;;16.90;99.90;;;;;;4911671;29;20087;-78
2022/09/09 07:44:18;;;;;;;1.45;0.98;;;16.80;99.90;;;;;;4909458;29;20046;-81
2022/09/09 07:46:45;;;;;;;1.17;0.63;;;16.80;99.90;;;;;;4912398;29;20024;-81
2022/09/09 07:49:13;;;;;;;1.23;0.68;;;16.70;99.90;;;;;;4913892;29;20060;-76
2022/09/09 07:51:42;;;;;;;0.90;0.50;;;16.60;99.90;;;;;;4912004;29;20127;-82
2022/09/09 07:54:13;;;;;;;1.95;0.80;;;16.50;99.90;;;;;;4914798;29;20020;-78
2022/09/09 07:56:41;;;;;;;1.00;0.77;;;16.40;99.90;;;;;;4902082;29;20028;-81
2022/09/09 07:59:10;;;;;;;1.67;0.85;;;16.30;99.90;;;;;;4911931;29;20033;-79
2022/09/09 08:01:45;;;;;;;2.22;1.80;;;16.20;99.90;;;;;;4913072;29;20035;-81
2022/09/09 08:04:16;;;;;;;2.50;1.00;;;16.20;99.90;;;;;;4914617;29;20499;-80
2022/09/09 08:06:46;;;;;;;2.67;1.30;;;16.10;99.90;;;;;;4909926;29;20432;-80
2022/09/09 08:09:15;;;;;;;2.13;1.17;;;16.00;99.90;;;;;;4903452;29;20384;-79
2022/09/09 08:11:43;;;;;;;2.85;1.45;;;15.90;99.90;;;;;;4902398;29;20031;-78
2022/09/09 08:14:12;;;;;;;2.42;1.33;;;15.80;99.90;;;;;;4915940;29;20131;-78
2022/09/09 08:16:43;;;;;;;6.88;2.03;;;15.80;99.90;;;;;;4912352;29;20052;-77
2022/09/09 08:19:11;;;;;;;4.35;1.65;;;15.70;99.90;;;;;;4911048;29;20036;-81
2022/09/09 08:21:40;;;;;;;3.75;1.88;;;15.70;99.90;;;;;;4900331;29;20021;-77
2022/09/09 08:24:12;;;;;;;3.03;1.80;;;15.70;99.90;;;;;;4900181;29;20037;-77
2022/09/09 08:26:44;;;;;;;3.92;2.17;;;15.70;99.90;;;;;;4903002;29;20021;-77
2022/09/09 08:29:13;;;;;;;2.90;2.05;;;15.60;99.90;;;;;;4900862;29;20107;-78
2022/09/09 08:31:54;;;;;;;2.35;1.35;;;15.60;99.90;;;;;;4907138;29;20044;-80
2022/09/09 08:34:22;;;;;;;1.92;1.00;;;15.60;99.90;;;;;;4912957;29;20043;-80
2022/09/09 08:36:51;;;;;;;1.92;1.00;;;15.70;99.90;;;;;;4906364;29;20416;-78
2022/09/09 08:39:21;;;;;;;3.42;1.08;;;15.80;99.90;;;;;;4915635;29;20409;-79
2022/09/09 08:41:54;;;;;;;4.97;3.72;;;15.80;99.90;;;;;;4899255;29;20067;-78
2022/09/09 08:44:37;;;;;;;3.25;2.45;;;15.80;99.90;;;;;;4906425;29;20055;-77
2022/09/09 08:47:10;;;;;;;5.30;2.85;;;15.70;99.90;;;;;;4903265;29;20061;-77
2022/09/09 08:49:53;;;;;;;4.18;3.58;;;15.60;99.90;;;;;;4902171;29;20028;-77
2022/09/09 08:52:27;;;;;;;4.38;1.95;;;15.50;99.90;;;;;;4903620;29;20203;-76
2022/09/09 08:55:04;;;;;;;2.95;1.98;;;15.40;99.90;;;;;;4905776;29;20103;-76
2022/09/09 08:57:32;;;;;;;1.83;1.15;;;15.30;99.90;;;;;;4900948;29;20504;-79
2022/09/09 09:00:00;;;;;;;2.92;1.35;;;15.20;99.90;;;;;;4905414;29;20424;-74
2022/09/09 09:03:00;;;;;;;2.92;1.40;;;15.20;99.90;;;;;;4908776;29;20063;-72
2022/09/09 09:05:52;;;;;;;2.40;1.17;;;15.20;99.90;;;;;;4902653;29;20120;-74
2022/09/09 09:08:37;;;;;;;1.25;1.10;;;15.20;99.90;;;;;;4907581;29;20039;-74
2022/09/09 09:11:05;;;;;;;2.47;1.27;;;15.20;99.90;;;;;;4866438;29;20710;-76
2022/09/09 09:13:54;;;;;;;5.22;1.33;;;15.20;99.90;;;;;;4872261;29;20043;-72
2022/09/09 09:16:49;;;;;;;3.97;1.58;;;15.30;99.90;;;;;;4871102;29;20024;-73
2022/09/09 09:19:18;;;;;;;2.13;1.17;;;15.20;99.90;;;;;;4871490;29;20037;-73
2022/09/09 09:22:08;;;;;;;3.33;0.80;;;15.20;99.90;;;;;;4864563;29;20503;-74
2022/09/09 09:24:46;;;;;;;2.20;1.20;;;15.10;99.90;;;;;;4871390;29;20092;-78
2022/09/09 09:27:35;;;;;;;1.55;0.77;;;15.10;99.90;;;;;;4872374;29;20032;-79
2022/09/09 09:30:24;;;;;;;0.90;0.60;;;15.10;99.90;;;;;;4866299;29;20457;-78
2022/09/09 09:32:56;;;;;;;2.20;0.73;;;15.00;99.90;;;;;;4870652;29;20434;-81
2022/09/09 09:35:24;;;;;;;6.70;0.98;;;15.00;99.90;;;;;;4868607;29;20025;-79
2022/09/09 09:37:51;;;;;;;1.40;0.73;;;14.90;99.90;;;;;;4863139;29;20036;-75
2022/09/09 09:40:21;;;;;;;1.30;0.60;;;14.90;99.90;;;;;;4868674;29;20029;-80
2022/09/09 09:42:55;;;;;;;0.60;0.50;;;14.90;99.90;;;;;;4865397;29;20045;-82
2022/09/09 09:45:35;;;;;;;2.03;0.90;;;15.00;99.90;;;;;;4856209;29;20038;-82
2022/09/09 09:48:13;;;;;;;1.50;0.95;;;15.00;99.90;;;;;;4864496;29;20546;-82
2022/09/09 09:50:54;;;;;;;3.47;2.17;;;14.90;99.90;;;;;;4859865;29;20041;-74
2022/09/09 09:53:33;;;;;;;7.78;2.50;;;14.80;99.90;;;;;;4859658;29;20037;-81
2022/09/09 09:56:24;;;;;;;3.28;2.33;;;14.80;99.90;;;;;;4867889;29;20036;-76
2022/09/09 09:58:54;;;;;;;4.43;3.60;;;14.70;99.90;;;;;;4862942;29;20124;-82
2022/09/09 10:01:36;;;;;;;3.15;2.05;;;14.60;99.90;;;;;;4863690;29;20028;-83
2022/09/09 10:04:16;;;;;;;5.53;2.20;;;14.50;99.90;;;;;;4870457;29;20067;-74
2022/09/09 10:06:43;;;;;;;2.83;1.88;;;14.50;99.90;;;;;;4868394;29;20039;-74
2022/09/09 10:09:32;;;;;;;3.58;1.98;;;14.50;99.90;;;;;;4882753;29;20073;-79
2022/09/09 10:12:22;;;;;;;2.92;1.58;;;14.40;99.90;;;;;;4910597;29;20044;-78
2022/09/09 10:15:25;;;;;;;3.50;1.65;;;14.30;99.90;;;;;;4903982;29;20036;-79
2022/09/09 10:18:11;;;;;;;3.05;1.40;;;14.30;99.90;;;;;;4897800;29;20033;-74
2022/09/09 10:21:27;;;;;;;2.37;1.00;;;14.30;99.90;;;;;;4902874;29;20040;-77
2022/09/09 10:24:37;;;;;;;2.83;1.48;;;14.30;99.90;;;;;;4829290;29;20052;-79
2022/09/09 10:27:08;;;;;;;2.50;1.45;;;14.30;99.90;;;;;;4902240;29;20040;-79
2022/09/09 10:29:53;;;;;;;2.90;0.98;;;14.40;99.90;;;;;;4909754;29;20111;-73
2022/09/09 10:32:38;;;;;;;1.63;0.85;;;14.40;99.90;;;;;;4904436;29;20044;-79
2022/09/09 10:35:23;;;;;;;2.55;1.17;;;14.40;99.90;;;;;;4901492;29;20040;-79
2022/09/09 10:38:04;;;;;;;2.13;1.13;;;14.30;99.90;;;;;;4901651;29;20107;-76
2022/09/09 10:40:56;;;;;;;1.05;0.80;;;14.30;99.90;;;;;;4904846;29;20865;-81
2022/09/09 10:43:26;;;;;;;1.88;0.90;;;14.20;99.90;;;;;;4903539;29;20657;-77
2022/09/09 10:46:27;;;;;;;2.35;0.60;;;14.20;99.90;;;;;;4899629;29;20477;-74
2022/09/09 10:49:09;;;;;;;1.77;0.90;;;14.20;99.90;;;;;;4906620;29;20312;-75
2022/09/09 10:51:49;;;;;;;3.15;1.77;;;14.30;99.90;;;;;;4897646;29;20025;-81
2022/09/09 10:54:17;;;;;;;4.18;2.33;;;14.40;99.90;;;;;;4905722;29;20111;-75
2022/09/09 10:56:51;;;;;;;3.00;1.75;;;14.50;99.90;;;;;;4901728;29;20091;-76
2022/09/09 10:59:26;;;;;;;3.83;2.10;;;14.60;99.90;;;;;;4908530;29;20513;-77
2022/09/09 11:02:00;;;;;;;1.38;0.93;;;14.70;99.90;;;;;;4903280;29;20072;-79
2022/09/09 11:04:39;;;;;;;1.58;0.95;;;14.80;99.90;;;;;;4900390;29;20196;-77
2022/09/09 11:07:13;;;;;;;1.27;0.75;;;14.90;99.90;;;;;;4906380;29;20043;-77
2022/09/09 11:09:53;;;;;;;1.55;0.68;;;15.00;99.90;;;;;;4899448;29;20115;-77
2022/09/09 11:12:20;;;;;;;1.67;1.02;;;15.10;99.90;;;;;;4906380;29;20028;-78
2022/09/09 11:15:02;;;;;;;1.55;0.73;;;15.10;99.90;;;;;;4899342;29;20028;-79
2022/09/09 11:17:43;;;;;;;1.05;0.63;;;15.20;99.90;;;;;;4900802;29;20037;-78
2022/09/09 11:20:15;;;;;;;1.85;0.80;;;15.20;99.90;;;;;;4905657;29;20028;-82
2022/09/09 11:22:50;;;;;;;5.38;2.75;;;15.10;99.90;;;;;;4903595;29;20072;-80
2022/09/09 11:25:21;;;;;;;7.05;2.80;;;15.20;99.90;;;;;;4896374;29;20055;-74
2022/09/09 11:28:27;;;;;;;3.15;0.80;;;15.10;99.90;;;;;;4899071;29;20037;-80
2022/09/09 11:31:22;;;;;;;3.30;1.27;;;15.10;99.90;;;;;;4896904;29;20119;-78
2022/09/09 11:34:00;;;;;;;2.80;0.98;;;15.00;99.90;;;;;;4899178;29;20060;-78
2022/09/09 11:36:49;;;;;;;2.75;1.42;;;14.90;99.90;;;;;;4898487;29;20064;-80
2022/09/09 11:39:46;;;;;;;1.38;0.70;;;15.00;99.90;;;;;;4902212;29;20811;-77
2022/09/09 11:42:13;;;;;;;2.63;0.60;;;15.00;99.90;;;;;;4901425;29;20040;-75
2022/09/09 11:44:42;;;;;;;1.95;1.08;;;15.10;99.90;;;;;;4899279;29;20067;-81
2022/09/09 11:47:32;;;;;;;0.90;0.50;;;15.20;99.90;;;;;;4907146;29;20029;-80
2022/09/09 11:50:16;;;;;;;0.57;0.35;;;15.20;99.90;;;;;;4901463;29;20043;-78
2022/09/09 11:52:46;;;;;;;0.50;0.30;;;15.20;99.90;;;;;;4895514;29;20035;-76
2022/09/09 11:55:31;;;;;;;0.32;0.20;;;15.30;99.90;;;;;;4902069;29;20033;-77
2022/09/09 11:58:10;;;;;;;0.68;0.35;;;15.40;99.90;;;;;;4896120;29;20096;-78
2022/09/09 12:00:45;;;;;;;0.52;0.20;;;15.40;99.90;;;;;;4905554;29;20029;-78
2022/09/09 12:03:43;;;;;;;1.65;0.60;;;15.50;99.90;;;;;;4906302;29;20587;-74
2022/09/09 12:06:42;;;;;;;1.38;0.45;;;15.50;99.90;;;;;;4897498;29;20045;-77
2022/09/09 12:09:33;;;;;;;1.27;0.30;;;15.50;99.90;;;;;;4898992;29;20385;-78
2022/09/09 12:12:28;;;;;;;0.95;0.30;;;15.40;99.90;;;;;;4898454;29;20044;-75
2022/09/09 12:15:07;;;;;;;1.23;0.60;;;15.30;99.90;;;;;;4873702;29;20587;-77
2022/09/09 12:17:54;;;;;;;1.00;0.20;;;15.20;99.90;;;;;;4890637;29;20032;-77
2022/09/09 12:20:30;;;;;;;0.63;0.20;;;15.10;99.90;;;;;;4896555;29;20035;-76
2022/09/09 12:23:04;;;;;;;2.35;1.00;;;15.00;99.90;;;;;;4900943;29;20035;-78
2022/09/09 12:25:32;;;;;;;0.68;0.40;;;14.90;99.90;;;;;;4897177;29;20036;-78
2022/09/09 12:28:28;;;;;;;0.70;0.40;;;14.90;99.90;;;;;;4894259;29;20039;-75
2022/09/09 12:31:32;;;;;;;0.50;0.40;;;14.80;99.90;;;;;;4890667;29;20566;-79
2022/09/09 12:34:38;;;;;;;0.47;0.30;;;14.70;99.90;;;;;;4895561;29;20040;-79
2022/09/09 12:37:36;;;;;;;1.80;0.50;;;14.60;99.90;;;;;;4898911;29;20040;-77
2022/09/09 12:40:22;;;;;;;0.98;0.40;;;14.60;99.90;;;;;;4891589;29;20066;-79
2022/09/09 12:42:50;;;;;;;1.25;0.70;;;14.60;99.90;;;;;;4903993;29;20044;-78
2022/09/09 12:45:20;;;;;;;0.70;0.30;;;14.60;99.90;;;;;;4898913;29;20047;-79
2022/09/09 12:47:56;;;;;;;0.73;0.40;;;14.70;99.90;;;;;;4897931;29;20040;-80
2022/09/09 12:50:37;;;;;;;0.98;0.40;;;14.70;99.90;;;;;;4902545;29;20091;-80
2022/09/09 12:53:15;;;;;;;0.82;0.40;;;14.80;99.90;;;;;;4898522;29;20043;-77
2022/09/09 12:56:04;;;;;;;3.80;0.93;;;14.70;99.90;;;;;;4896876;29;20040;-78
2022/09/09 12:58:32;;;;;;;0.75;0.40;;;14.70;99.90;;;;;;4896360;29;20025;-78
2022/09/09 13:01:03;;;;;;;1.40;0.50;;;14.60;99.90;;;;;;4898385;29;20114;-78
2022/09/09 13:03:30;;;;;;;2.60;0.50;;;14.50;99.90;;;;;;4894221;29;20040;-76
2022/09/09 13:06:14;;;;;;;3.25;0.43;;;14.40;99.90;;;;;;4895150;29;20028;-78
2022/09/09 13:08:41;;;;;;;0.45;0.38;;;14.40;99.90;;;;;;4894159;29;20025;-79
2022/09/09 13:11:25;;;;;;;0.60;0.30;;;14.20;99.90;;;;;;4901690;29;20048;-75
2022/09/09 13:13:57;;;;;;;0.63;0.60;;;14.20;99.90;;;;;;4898319;29;20036;-80
2022/09/09 13:16:31;;;;;;;1.13;0.30;;;14.20;99.90;;;;;;4896468;29;20392;-80
2022/09/09 13:19:10;;;;;;;2.42;0.30;;;14.30;99.90;;;;;;4899789;29;20032;-76
2022/09/09 13:21:39;;;;;;;1.50;0.40;;;14.30;99.90;;;;;;4900095;29;20115;-76
2022/09/09 13:24:29;;;;;;;1.63;0.25;;;14.30;99.90;;;;;;4902544;29;20040;-79
2022/09/09 13:27:05;;;;;;;1.40;0.47;;;14.30;99.90;;;;;;4901407;29;20087;-78
2022/09/09 13:29:33;;;;;;;0.85;0.55;;;14.20;99.90;;;;;;4897608;29;20051;-79
2022/09/09 13:32:17;;;;;;;0.68;0.38;;;14.20;99.90;;;;;;4907158;29;20047;-75